createdAt,value
2019-04-20T00:01:31.953Z,10.89
2019-04-20T00:04:01.030Z,10.91
2019-04-20T00:06:38.154Z,10.88
2019-04-20T00:09:08.828Z,10.86
2019-04-20T00:11:45.866Z,10.85
2019-04-20T00:14:13.776Z,10.82
2019-04-20T00:16:39.936Z,10.84
2019-04-20T00:19:10.671Z,10.80
2019-04-20T00:21:49.568Z,10.72
2019-04-20T00:24:42.654Z,10.70
2019-04-20T00:27:37.051Z,10.64
2019-04-20T00:30:04.262Z,10.54
2019-04-20T00:32:35.961Z,10.48
2019-04-20T00:34:51.157Z,10.36
2019-04-20T00:37:21.193Z,10.36
2019-04-20T00:39:50.878Z,10.32
2019-04-20T00:42:32.563Z,10.32
2019-04-20T00:45:00.613Z,10.26
2019-04-20T00:47:39.761Z,10.22
2019-04-20T00:50:09.215Z,10.16
2019-04-20T00:52:41.385Z,10.16
2019-04-20T00:55:00.079Z,10.16
2019-04-20T00:57:41.881Z,10.15
2019-04-20T01:00:21.496Z,10.13
2019-04-20T01:02:45.495Z,10.01
2019-04-20T01:05:27.617Z,10.01
2019-04-20T01:08:00.533Z,10.00
2019-04-20T01:10:37.114Z,10.00
2019-04-20T01:13:11.288Z,9.99
2019-04-20T01:15:46.207Z,9.99
2019-04-20T01:18:04.088Z,9.98
2019-04-20T01:20:33.420Z,9.91
2019-04-20T01:23:07.600Z,9.86
2019-04-20T01:25:39.334Z,9.81
2019-04-20T01:28:24.560Z,9.81
2019-04-20T01:30:44.633Z,9.75
2019-04-20T01:33:25.864Z,9.75
2019-04-20T01:35:57.737Z,9.73
2019-04-20T01:38:30.476Z,9.74
2019-04-20T01:40:44.753Z,9.74
2019-04-20T01:43:14.575Z,9.73
2019-04-20T01:45:45.745Z,9.72
2019-04-20T01:48:22.024Z,9.73
2019-04-20T01:50:57.384Z,9.72
2019-04-20T01:53:41.159Z,9.68
2019-04-20T01:56:12.458Z,9.69
2019-04-20T01:59:02.750Z,9.59
2019-04-20T02:01:40.193Z,9.58
2019-04-20T02:04:23.788Z,9.58
2019-04-20T02:06:50.356Z,9.54
2019-04-20T02:09:21.156Z,9.55
2019-04-20T02:11:50.815Z,9.56
2019-04-20T02:14:29.555Z,9.55
2019-04-20T02:17:05.394Z,9.44
2019-04-20T02:19:39.281Z,9.44
2019-04-20T02:22:09.930Z,9.38
2019-04-20T02:24:29.905Z,9.33
2019-04-20T02:26:59.848Z,9.29
2019-04-20T02:29:50.983Z,9.24
2019-04-20T02:32:47.673Z,9.22
2019-04-20T02:35:29.932Z,9.24
2019-04-20T02:40:39.680Z,9.18
2019-04-20T02:43:09.565Z,9.17
2019-04-20T02:45:49.070Z,9.03
2019-04-20T02:48:10.029Z,8.97
2019-04-20T02:50:38.660Z,8.94
2019-04-20T02:53:17.349Z,8.92
2019-04-20T02:55:41.930Z,8.89
2019-04-20T02:58:10.811Z,8.83
2019-04-20T03:00:36.168Z,8.86
2019-04-20T03:02:57.113Z,8.88
2019-04-20T03:05:29.864Z,8.90
2019-04-20T03:08:08.993Z,8.90
2019-04-20T03:10:46.406Z,8.86
2019-04-20T03:13:15.855Z,8.84
2019-04-20T03:15:50.673Z,8.83
2019-04-20T03:18:19.216Z,8.77
2019-04-20T03:20:55.075Z,8.76
2019-04-20T03:23:33.535Z,8.71
2019-04-20T03:26:05.423Z,8.66
2019-04-20T03:29:05.328Z,8.66
2019-04-20T03:32:17.265Z,8.62
2019-04-20T03:34:47.536Z,8.65
2019-04-20T03:37:05.050Z,8.65
2019-04-20T03:39:21.956Z,8.62
2019-04-20T03:41:43.217Z,8.57
2019-04-20T03:44:12.664Z,8.53
2019-04-20T03:46:47.902Z,8.50
2019-04-20T03:49:38.447Z,8.46
2019-04-20T03:52:23.419Z,8.48
2019-04-20T03:55:16.429Z,8.49
2019-04-20T03:58:10.743Z,8.47
2019-04-20T04:01:14.194Z,8.49
2019-04-20T04:03:58.784Z,8.44
2019-04-20T04:06:17.803Z,8.41
2019-04-20T04:08:55.016Z,8.41
2019-04-20T04:11:27.550Z,8.46
2019-04-20T04:13:48.118Z,8.41
2019-04-20T04:16:21.578Z,8.38
2019-04-20T04:19:02.849Z,8.38
2019-04-20T04:21:39.562Z,8.39
2019-04-20T04:24:07.292Z,8.39
2019-04-20T04:26:56.248Z,8.35
2019-04-20T04:29:39.689Z,8.35
2019-04-20T04:32:12.798Z,8.32
2019-04-20T04:34:34.716Z,8.34
2019-04-20T04:37:06.791Z,8.22
2019-04-20T04:39:37.768Z,8.23
2019-04-20T04:42:16.944Z,8.22
2019-04-20T04:44:38.896Z,8.20
2019-04-20T04:47:02.730Z,8.20
2019-04-20T04:49:35.260Z,8.18
2019-04-20T04:52:06.166Z,8.13
2019-04-20T04:54:40.045Z,8.14
2019-04-20T04:57:05.306Z,8.14
2019-04-20T04:59:36.229Z,8.14
2019-04-20T05:02:05.727Z,8.16
2019-04-20T05:07:56.471Z,8.07
2019-04-20T05:10:16.296Z,8.03
2019-04-20T05:12:46.233Z,8.03
2019-04-20T05:15:32.535Z,8.02
2019-04-20T05:18:09.990Z,7.98
2019-04-20T05:20:42.636Z,8.04
2019-04-20T05:23:26.967Z,8.07
2019-04-20T05:26:14.335Z,8.09
2019-04-20T05:28:36.842Z,8.17
2019-04-20T05:30:59.971Z,8.17
2019-04-20T05:33:48.529Z,8.19
2019-04-20T05:36:20.053Z,8.19
2019-04-20T05:38:55.767Z,8.20
2019-04-20T05:41:21.910Z,8.37
2019-04-20T05:44:00.747Z,8.37
2019-04-20T05:46:37.248Z,8.41
2019-04-20T05:49:20.632Z,8.49
2019-04-20T05:51:40.896Z,8.55
2019-04-20T05:54:13.521Z,8.55
2019-04-20T05:56:46.383Z,8.72
2019-04-20T05:59:15.271Z,8.72
2019-04-20T06:01:53.189Z,8.76
2019-04-20T06:04:22.468Z,8.82
2019-04-20T06:06:56.497Z,8.92
2019-04-20T06:09:28.687Z,8.92
2019-04-20T06:12:07.689Z,8.98
2019-04-20T06:14:39.514Z,9.03
2019-04-20T06:17:51.511Z,9.07
2019-04-20T06:20:21.543Z,9.13
2019-04-20T06:22:59.963Z,9.22
2019-04-20T06:28:02.896Z,9.30
2019-04-20T06:30:33.186Z,9.36
2019-04-20T06:34:01.388Z,9.42
2019-04-20T06:36:23.486Z,9.44
2019-04-20T06:39:00.454Z,9.60
2019-04-20T06:41:32.532Z,9.73
2019-04-20T06:43:54.199Z,9.73
2019-04-20T06:46:22.304Z,9.74
2019-04-20T06:49:04.395Z,9.78
2019-04-20T06:51:38.848Z,9.84
2019-04-20T06:54:04.719Z,9.89
2019-04-20T06:56:42.515Z,9.98
2019-04-20T06:59:21.523Z,10.10
2019-04-20T07:01:57.015Z,10.22
2019-04-20T07:06:56.593Z,10.45
2019-04-20T07:09:38.646Z,10.54
2019-04-20T07:11:50.446Z,10.63
2019-04-20T07:14:11.088Z,10.73
2019-04-20T07:17:09.474Z,10.99
2019-04-20T07:19:39.937Z,10.99
2019-04-20T07:27:22.949Z,11.40
2019-04-20T07:30:09.451Z,11.56
2019-04-20T07:32:17.822Z,11.68
2019-04-20T07:34:56.853Z,11.81
2019-04-20T07:40:06.003Z,12.03
2019-04-20T07:42:43.695Z,12.17
2019-04-20T07:45:19.913Z,12.17
2019-04-20T07:50:10.090Z,12.39
2019-04-20T07:52:33.986Z,12.51
2019-04-20T07:57:41.945Z,12.60
2019-04-20T08:00:19.901Z,12.69
2019-04-20T08:03:11.923Z,12.80
2019-04-20T08:05:45.710Z,12.91
2019-04-20T08:08:27.177Z,13.03
2019-04-20T08:10:54.353Z,13.17
2019-04-20T08:13:40.346Z,13.24
2019-04-20T08:16:00.793Z,13.33
2019-04-20T08:21:03.838Z,15.67
2019-04-20T08:23:34.854Z,17.71
2019-04-20T08:26:00.504Z,18.67
2019-04-20T08:28:36.076Z,19.12
2019-04-20T08:31:38.592Z,19.42
2019-04-20T08:34:38.337Z,19.03
2019-04-20T08:36:52.656Z,17.36
2019-04-20T08:41:56.349Z,16.65
2019-04-20T08:47:05.164Z,16.96
2019-04-20T08:49:57.102Z,16.94
2019-04-20T08:52:23.057Z,16.97
2019-04-20T08:54:34.447Z,17.05
2019-04-20T08:56:55.365Z,17.19
2019-04-20T08:59:23.326Z,17.29
2019-04-20T09:01:53.487Z,17.37
2019-04-20T09:04:37.324Z,17.54
2019-04-20T09:07:08.377Z,17.72
2019-04-20T09:09:49.619Z,17.84
2019-04-20T09:12:21.197Z,17.87
2019-04-20T09:14:38.484Z,18.13
2019-04-20T09:17:26.439Z,18.35
2019-04-20T09:19:55.730Z,17.83
2019-04-20T09:23:07.113Z,18.36
2019-04-20T09:25:57.589Z,18.62
2019-04-20T09:28:28.518Z,18.74
2019-04-20T09:31:22.615Z,19.03
2019-04-20T09:34:20.344Z,19.04
2019-04-20T09:36:49.370Z,18.46
2019-04-20T09:39:44.980Z,18.37
2019-04-20T09:42:34.519Z,18.36
2019-04-20T09:45:07.578Z,18.38
2019-04-20T09:47:43.592Z,18.87
2019-04-20T09:50:29.265Z,19.25
2019-04-20T09:53:03.655Z,19.41
2019-04-20T09:55:28.848Z,19.47
2019-04-20T09:58:06.291Z,19.41
2019-04-20T10:00:43.808Z,19.41
2019-04-20T10:02:57.995Z,19.48
2019-04-20T10:05:29.578Z,19.08
2019-04-20T10:08:03.341Z,18.85
2019-04-20T10:10:35.780Z,18.74
2019-04-20T10:13:09.173Z,18.75
2019-04-20T10:15:39.654Z,18.98
2019-04-20T10:18:15.366Z,18.62
2019-04-20T10:20:45.377Z,17.78
2019-04-20T10:23:16.469Z,18.13
2019-04-20T10:25:46.823Z,18.94
2019-04-20T10:28:16.314Z,18.98
2019-04-20T10:30:46.326Z,19.23
2019-04-20T10:33:15.978Z,19.62
2019-04-20T10:35:45.691Z,19.35
2019-04-20T10:38:23.275Z,19.20
2019-04-20T10:41:03.330Z,19.28
2019-04-20T10:43:25.951Z,19.25
2019-04-20T10:45:57.087Z,19.14
2019-04-20T10:48:27.011Z,19.34
2019-04-20T10:50:56.881Z,19.22
2019-04-20T10:53:27.947Z,19.05
2019-04-20T10:55:57.815Z,19.24
2019-04-20T10:58:27.527Z,19.42
2019-04-20T11:00:57.671Z,19.46
2019-04-20T11:03:28.811Z,19.50
2019-04-20T11:05:58.976Z,19.51
2019-04-20T11:08:28.744Z,19.40
2019-04-20T11:11:09.096Z,19.46
2019-04-20T11:13:29.850Z,19.55
2019-04-20T11:16:00.458Z,19.66
2019-04-20T11:18:31.299Z,19.62
2019-04-20T11:21:01.503Z,19.58
2019-04-20T11:23:32.125Z,19.62
2019-04-20T11:26:02.226Z,19.58
2019-04-20T11:28:34.410Z,19.72
2019-04-20T11:31:04.226Z,19.71
2019-04-20T11:33:34.243Z,19.67
2019-04-20T11:36:05.217Z,19.71
2019-04-20T11:38:35.296Z,19.78
2019-04-20T11:41:14.456Z,19.82
2019-04-20T11:43:38.034Z,19.94
2019-04-20T11:46:09.029Z,19.92
2019-04-20T11:48:39.435Z,19.94
2019-04-20T11:51:09.486Z,20.02
2019-04-20T11:53:40.362Z,19.99
2019-04-20T11:56:15.996Z,19.99
2019-04-20T11:58:42.815Z,19.96
2019-04-20T12:01:44.094Z,20.00
2019-04-20T12:04:21.550Z,20.09
2019-04-20T12:06:39.470Z,20.20
2019-04-20T12:09:12.929Z,20.18
2019-04-20T12:11:56.004Z,20.22
2019-04-20T12:14:14.471Z,20.04
2019-04-20T12:16:45.747Z,19.79
2019-04-20T12:19:15.686Z,19.70
2019-04-20T12:21:45.624Z,19.75
2019-04-20T12:24:16.419Z,19.58
2019-04-20T12:26:46.995Z,19.63
2019-04-20T12:29:17.369Z,19.63
2019-04-20T12:31:51.157Z,19.69
2019-04-20T12:34:20.508Z,19.55
2019-04-20T12:36:51.188Z,19.85
2019-04-20T12:39:22.239Z,19.93
2019-04-20T12:41:56.497Z,19.67
2019-04-20T12:44:24.104Z,19.55
2019-04-20T12:46:54.050Z,19.67
2019-04-20T12:49:23.666Z,19.51
2019-04-20T12:51:58.002Z,19.64
2019-04-20T12:54:25.351Z,19.47
2019-04-20T12:56:56.066Z,19.66
2019-04-20T12:59:27.543Z,19.62
2019-04-20T13:02:01.653Z,19.57
2019-04-20T13:04:33.254Z,19.29
2019-04-20T13:07:03.850Z,19.47
2019-04-20T13:09:44.312Z,19.38
2019-04-20T13:12:21.658Z,19.54
2019-04-20T13:15:22.358Z,19.74
2019-04-20T13:17:52.868Z,19.62
2019-04-20T13:20:28.022Z,19.27
2019-04-20T13:22:59.995Z,19.28
2019-04-20T13:25:30.560Z,19.24
2019-04-20T13:28:01.040Z,19.40
2019-04-20T13:30:32.134Z,19.44
2019-04-20T13:33:03.597Z,19.37
2019-04-20T13:35:34.285Z,18.91
2019-04-20T13:38:04.656Z,18.99
2019-04-20T13:40:35.406Z,18.98
2019-04-20T13:43:05.777Z,19.01
2019-04-20T13:45:37.063Z,18.94
2019-04-20T13:48:08.785Z,18.96
2019-04-20T13:50:40.070Z,18.87
2019-04-20T13:53:09.678Z,18.88
2019-04-20T13:55:40.108Z,18.80
2019-04-20T13:58:16.015Z,18.82
2019-04-20T14:01:03.364Z,18.74
2019-04-20T14:03:34.587Z,18.58
2019-04-20T14:06:06.893Z,18.52
2019-04-20T14:08:37.107Z,18.61
2019-04-20T14:11:07.340Z,18.67
2019-04-20T14:13:43.509Z,18.70
2019-04-20T14:16:14.357Z,18.57
2019-04-20T14:18:45.015Z,18.58
2019-04-20T14:21:14.722Z,18.19
2019-04-20T14:23:45.342Z,18.23
2019-04-20T14:26:17.293Z,18.22
2019-04-20T14:28:47.137Z,17.32
2019-04-20T14:31:17.519Z,17.90
2019-04-20T14:33:48.771Z,17.95
2019-04-20T14:36:19.091Z,18.01
2019-04-20T14:38:49.901Z,18.10
2019-04-20T14:41:22.373Z,18.51
2019-04-20T14:43:53.185Z,18.87
2019-04-20T14:46:26.165Z,18.67
2019-04-20T14:48:56.583Z,18.71
2019-04-20T14:51:27.834Z,18.58
2019-04-20T14:53:57.537Z,17.94
2019-04-20T14:56:29.317Z,17.94
2019-04-20T14:59:19.884Z,18.06
2019-04-20T15:01:54.699Z,18.17
2019-04-20T15:04:28.596Z,18.02
2019-04-20T15:06:57.876Z,18.01
2019-04-20T15:09:28.689Z,18.16
2019-04-20T15:11:59.031Z,18.03
2019-04-20T15:14:29.146Z,18.05
2019-04-20T15:16:58.683Z,18.14
2019-04-20T15:19:36.603Z,18.10
2019-04-20T15:22:09.429Z,18.08
2019-04-20T15:24:39.738Z,17.98
2019-04-20T15:27:10.164Z,18.00
2019-04-20T15:29:40.132Z,17.85
2019-04-20T15:32:10.214Z,18.03
2019-04-20T15:34:40.228Z,17.96
2019-04-20T15:37:12.022Z,18.04
2019-04-20T15:39:43.180Z,18.16
2019-04-20T15:42:12.704Z,17.93
2019-04-20T15:44:43.027Z,17.88
2019-04-20T15:47:17.578Z,18.00
2019-04-20T15:49:47.028Z,17.91
2019-04-20T15:52:22.359Z,17.95
2019-04-20T15:54:47.994Z,17.74
2019-04-20T15:57:21.728Z,17.71
2019-04-20T15:59:49.015Z,17.80
2019-04-20T16:02:25.157Z,17.75
2019-04-20T16:05:14.410Z,17.55
2019-04-20T16:07:50.325Z,17.61
2019-04-20T16:10:17.070Z,17.66
2019-04-20T16:12:46.926Z,17.63
2019-04-20T16:15:17.769Z,17.60
2019-04-20T16:17:51.613Z,17.56
2019-04-20T16:20:23.626Z,17.49
2019-04-20T16:22:54.348Z,17.43
2019-04-20T16:25:31.936Z,17.43
2019-04-20T16:28:01.673Z,17.42
2019-04-20T16:30:31.779Z,17.35
2019-04-20T16:33:02.715Z,17.19
2019-04-20T16:35:34.221Z,17.17
2019-04-20T16:38:04.447Z,17.18
2019-04-20T16:40:35.661Z,17.13
2019-04-20T16:43:15.825Z,17.05
2019-04-20T16:45:37.186Z,17.01
2019-04-20T16:48:08.480Z,17.05
2019-04-20T16:50:38.340Z,16.98
2019-04-20T16:53:08.871Z,16.95
2019-04-20T16:55:38.888Z,17.00
2019-04-20T16:58:10.220Z,16.79
2019-04-20T17:00:41.149Z,16.69
2019-04-20T17:03:11.198Z,16.65
2019-04-20T17:05:41.250Z,16.62
2019-04-20T17:08:11.281Z,16.62
2019-04-20T17:10:41.809Z,16.57
2019-04-20T17:13:11.617Z,16.45
2019-04-20T17:15:43.439Z,16.41
2019-04-20T17:18:13.710Z,16.42
2019-04-20T17:20:44.319Z,16.39
2019-04-20T17:23:15.063Z,16.33
2019-04-20T17:25:46.080Z,16.33
2019-04-20T17:28:33.349Z,16.31
2019-04-20T17:31:19.771Z,16.24
2019-04-20T17:34:04.740Z,16.23
2019-04-20T17:36:27.793Z,16.10
2019-04-20T17:38:59.737Z,16.12
2019-04-20T17:42:00.150Z,16.12
2019-04-20T17:44:17.321Z,16.13
2019-04-20T17:46:43.918Z,16.14
2019-04-20T17:49:15.869Z,16.14
2019-04-20T17:51:58.095Z,16.03
2019-04-20T17:54:23.505Z,16.03
2019-04-20T17:56:54.277Z,16.04
2019-04-20T17:59:24.328Z,16.01
2019-04-20T18:02:38.330Z,16.02
2019-04-20T18:05:32.831Z,16.01
2019-04-20T18:08:08.109Z,15.98
2019-04-20T18:10:31.742Z,15.94
2019-04-20T18:12:50.201Z,15.85
2019-04-20T18:15:36.042Z,15.80
2019-04-20T18:18:28.316Z,15.79
2019-04-20T18:21:17.097Z,15.72
2019-04-20T18:23:50.304Z,15.63
2019-04-20T18:26:39.327Z,15.53
2019-04-20T18:29:10.721Z,15.47
2019-04-20T18:31:41.768Z,15.40
2019-04-20T18:34:29.151Z,15.43
2019-04-20T18:37:00.626Z,15.46
2019-04-20T18:39:38.699Z,15.34
2019-04-20T18:42:14.286Z,15.26
2019-04-20T18:44:55.893Z,15.30
2019-04-20T18:47:30.142Z,15.30
2019-04-20T18:49:49.181Z,15.32
2019-04-20T18:52:09.511Z,15.29
2019-04-20T18:54:43.842Z,15.23
2019-04-20T18:57:14.333Z,15.12
2019-04-20T18:59:47.815Z,15.12
2019-04-20T19:02:19.947Z,15.12
2019-04-20T19:04:45.781Z,15.05
2019-04-20T19:07:15.542Z,14.95
2019-04-20T19:09:45.119Z,14.91
2019-04-20T19:12:16.574Z,14.93
2019-04-20T19:15:12.082Z,14.98
2019-04-20T19:18:04.290Z,15.01
2019-04-20T19:20:32.915Z,14.94
2019-04-20T19:23:04.003Z,14.90
2019-04-20T19:25:37.501Z,14.86
2019-04-20T19:28:14.540Z,14.72
2019-04-20T19:31:00.098Z,14.65
2019-04-20T19:33:30.931Z,14.57
2019-04-20T19:35:57.368Z,14.46
2019-04-20T19:38:29.509Z,14.34
2019-04-20T19:41:02.063Z,14.29
2019-04-20T19:43:31.676Z,14.28
2019-04-20T19:46:35.584Z,14.18
2019-04-20T19:48:40.710Z,14.00
2019-04-20T19:51:26.933Z,13.89
2019-04-20T19:53:56.326Z,13.82
2019-04-20T19:56:26.391Z,13.72
2019-04-20T19:58:55.248Z,13.67
2019-04-20T20:01:11.460Z,13.64
2019-04-20T20:03:43.759Z,13.57
2019-04-20T20:06:24.140Z,13.38
2019-04-20T20:08:53.163Z,13.20
2019-04-20T20:11:27.675Z,13.03
2019-04-20T20:13:53.480Z,12.92
2019-04-20T20:16:30.309Z,12.91
2019-04-20T20:19:07.450Z,12.92
2019-04-20T20:21:38.587Z,12.93
2019-04-20T20:23:57.845Z,12.90
2019-04-20T20:26:36.200Z,12.82
2019-04-20T20:29:10.949Z,12.69
2019-04-20T20:31:48.618Z,12.57
2019-04-20T20:34:12.921Z,12.52
2019-04-20T20:36:43.752Z,12.48
2019-04-20T20:39:15.737Z,12.45
2019-04-20T20:41:53.411Z,12.40
2019-04-20T20:44:26.497Z,12.37
2019-04-20T20:46:55.380Z,12.34
2019-04-20T20:49:32.755Z,12.25
2019-04-20T20:52:08.329Z,12.11
2019-04-20T20:54:36.426Z,12.07
2019-04-20T20:56:59.843Z,12.11
2019-04-20T20:59:34.775Z,12.11
2019-04-20T21:02:06.457Z,12.14
2019-04-20T21:04:31.594Z,12.14
2019-04-20T21:07:02.731Z,12.16
2019-04-20T21:09:33.425Z,12.08
2019-04-20T21:12:08.463Z,12.02
2019-04-20T21:14:38.407Z,11.97
2019-04-20T21:17:15.205Z,11.92
2019-04-20T21:19:53.393Z,10.79
2019-04-20T21:22:18.530Z,11.67
2019-04-20T21:24:42.162Z,11.61
2019-04-20T21:27:16.695Z,11.63
2019-04-20T21:29:50.523Z,11.63
2019-04-20T21:32:19.462Z,11.63
2019-04-20T21:34:51.859Z,11.53
2019-04-20T21:37:22.483Z,11.44
2019-04-20T21:39:55.379Z,11.31
2019-04-20T21:42:26.432Z,11.31
2019-04-20T21:45:04.417Z,11.38
2019-04-20T21:47:34.680Z,11.45
2019-04-20T21:50:17.029Z,11.46
2019-04-20T21:52:40.782Z,11.53
2019-04-20T21:55:06.076Z,11.70
2019-04-20T21:57:42.054Z,11.73
2019-04-20T22:00:23.752Z,11.75
2019-04-20T22:02:54.146Z,11.79
2019-04-20T22:05:15.730Z,11.82
2019-04-20T22:07:46.404Z,11.84
2019-04-20T22:10:18.984Z,11.81
2019-04-20T22:12:52.667Z,11.88
2019-04-20T22:15:26.096Z,11.88
2019-04-20T22:17:50.596Z,11.91
2019-04-20T22:20:32.151Z,11.85
2019-04-20T22:23:02.964Z,11.77
2019-04-20T22:25:46.256Z,11.68
2019-04-20T22:27:58.553Z,11.52
2019-04-20T22:30:28.132Z,11.35
2019-04-20T22:33:04.055Z,11.23
2019-04-20T22:35:36.004Z,11.15
2019-04-20T22:38:37.628Z,11.06
2019-04-20T22:41:13.894Z,11.02
2019-04-20T22:43:40.329Z,11.22
2019-04-20T22:46:09.896Z,11.23
2019-04-20T22:48:47.657Z,11.18
2019-04-20T22:51:28.186Z,11.10
2019-04-20T22:53:51.988Z,10.99
2019-04-20T22:56:29.969Z,10.91
2019-04-20T22:58:55.617Z,10.83
2019-04-20T23:01:27.748Z,10.77
2019-04-20T23:03:48.576Z,10.67
2019-04-20T23:06:18.874Z,10.61
2019-04-20T23:08:57.583Z,10.61
2019-04-20T23:11:26.419Z,10.66
2019-04-20T23:13:53.013Z,10.77
2019-04-20T23:16:23.088Z,10.90
2019-04-20T23:18:54.265Z,10.82
2019-04-20T23:21:24.010Z,10.61
2019-04-20T23:24:00.446Z,10.43
2019-04-20T23:26:33.276Z,10.23
2019-04-20T23:29:00.814Z,10.18
2019-04-20T23:31:32.161Z,10.17
2019-04-20T23:34:10.094Z,10.12
2019-04-20T23:36:39.018Z,10.09
2019-04-20T23:39:08.769Z,10.07
2019-04-20T23:41:43.510Z,10.06
2019-04-20T23:44:29.339Z,10.02
2019-04-20T23:47:15.583Z,10.00
2019-04-20T23:50:03.363Z,9.89
2019-04-20T23:52:42.427Z,9.89
2019-04-20T23:54:58.892Z,9.85
2019-04-20T23:57:26.042Z,9.80
2019-04-20T23:59:56.232Z,9.55
